createdAt,value
2017-11-07T00:02:34.309Z,40.57
2017-11-07T00:17:36.231Z,42.40
2017-11-07T00:32:37.207Z,38.87
2017-11-07T00:47:34.358Z,42.80
2017-11-07T01:02:33.523Z,33.10
2017-11-07T01:17:35.474Z,27.93
2017-11-07T01:32:33.439Z,29.80
2017-11-07T01:47:33.858Z,40.10
2017-11-07T02:02:33.752Z,28.87
2017-11-07T02:17:34.396Z,29.40
2017-11-07T02:32:36.371Z,26.87
2017-11-07T02:47:33.665Z,24.87
2017-11-07T03:02:36.727Z,25.47
2017-11-07T03:17:35.120Z,24.93
2017-11-07T03:32:34.571Z,24.17
2017-11-07T03:47:34.983Z,25.37
2017-11-07T04:02:34.240Z,25.40
2017-11-07T04:17:38.605Z,24.30
2017-11-07T04:32:34.845Z,27.63
2017-11-07T04:47:34.048Z,24.00
2017-11-07T05:02:34.190Z,23.87
2017-11-07T05:17:36.529Z,35.17
2017-11-07T05:32:34.389Z,32.57
2017-11-07T05:47:33.561Z,41.30
2017-11-07T06:02:40.474Z,43.10
2017-11-07T06:17:37.366Z,44.47
2017-11-07T06:32:34.313Z,44.13
2017-11-07T06:47:34.187Z,48.57
2017-11-07T07:02:34.618Z,48.00
2017-11-07T07:17:34.574Z,47.50
2017-11-07T07:32:36.485Z,42.13
2017-11-07T07:47:34.949Z,34.77
2017-11-07T08:02:35.381Z,30.27
2017-11-07T08:17:36.813Z,24.87
2017-11-07T08:32:37.252Z,27.20
2017-11-07T08:47:35.096Z,20.47
2017-11-07T09:02:36.994Z,21.67
2017-11-07T09:17:34.975Z,20.47
2017-11-07T09:32:34.855Z,17.80
2017-11-07T09:47:34.359Z,20.33
2017-11-07T10:02:34.228Z,19.30
2017-11-07T10:17:33.164Z,18.10
2017-11-07T10:32:34.171Z,21.30
2017-11-07T10:47:34.538Z,20.87
2017-11-07T11:02:34.481Z,22.30
2017-11-07T11:17:36.400Z,20.70
2017-11-07T11:32:37.323Z,24.37
2017-11-07T11:47:36.771Z,24.87
2017-11-07T12:02:34.743Z,25.17
2017-11-07T12:17:37.561Z,26.20
2017-11-07T12:32:34.570Z,25.23
2017-11-07T12:47:34.951Z,25.60
2017-11-07T13:02:34.913Z,22.37
2017-11-07T13:17:35.279Z,24.47
2017-11-07T13:32:34.706Z,25.23
2017-11-07T13:47:33.674Z,23.80
2017-11-07T14:02:34.173Z,27.73
2017-11-07T14:17:35.062Z,37.90
2017-11-07T14:32:34.964Z,32.50
2017-11-07T14:47:34.344Z,36.83
2017-11-07T15:02:34.281Z,37.60
2017-11-07T15:17:34.230Z,33.27
2017-11-07T15:32:36.196Z,34.23
2017-11-07T15:47:34.623Z,35.87
2017-11-07T16:02:39.615Z,30.97
2017-11-07T16:17:36.508Z,41.10
2017-11-07T16:32:36.428Z,35.20
2017-11-07T16:47:36.901Z,34.30
2017-11-07T17:02:34.832Z,34.50
2017-11-07T17:17:35.069Z,35.40
2017-11-07T17:32:34.723Z,34.60
2017-11-07T17:47:35.196Z,45.97
2017-11-07T18:02:36.951Z,25.30
2017-11-07T18:17:35.182Z,27.53
2017-11-07T18:32:34.935Z,24.90
2017-11-07T18:47:35.634Z,28.90
2017-11-07T19:02:35.274Z,30.13
2017-11-07T19:17:37.888Z,32.13
2017-11-07T19:32:34.883Z,33.00
2017-11-07T19:47:34.526Z,37.33
2017-11-07T20:02:35.252Z,38.73
2017-11-07T20:17:35.413Z,39.70
2017-11-07T20:32:37.619Z,38.43
2017-11-07T20:47:40.770Z,42.63
2017-11-07T21:02:35.249Z,43.70
2017-11-07T21:17:34.709Z,49.70
2017-11-07T21:32:34.588Z,48.67
2017-11-07T21:47:35.053Z,50.17
2017-11-07T22:02:34.953Z,45.47
2017-11-07T22:17:36.910Z,44.73
2017-11-07T22:32:34.851Z,43.63
2017-11-07T22:47:35.256Z,42.57
2017-11-07T23:02:37.241Z,42.70
2017-11-07T23:17:35.157Z,37.17
2017-11-07T23:32:35.088Z,35.33
2017-11-07T23:47:33.803Z,41.70
